Time;durP1;ratioP1;P1;durP2;ratioP2;P2;SDS_P1;SDS_P2;PMS_P1;PMS_P2;Temp;Humidity;BMP_temperature;BMP_pressure;BME280_temperature;BME280_humidity;BME280_pressure;Samples;Min_cycle;Max_cycle;Signal;HPM_P1;HPM_P2
2023/07/31 00:00:22;;;;;;;18.30;5.88;;;;;;;;;;4986978;28;21022;-72
2023/07/31 00:02:48;;;;;;;22.48;6.78;;;;;;;;;;4986296;28;20230;-72
2023/07/31 00:05:13;;;;;;;25.88;7.63;;;;;;;;;;4983272;28;20229;-71
2023/07/31 00:07:38;;;;;;;32.10;8.70;;;;;;;;;;4984070;28;20187;-72
2023/07/31 00:10:03;;;;;;;33.25;7.78;;;;;;;;;;4985577;28;20183;-72
2023/07/31 00:15:06;;;;;;;40.60;7.88;;;;;;;;;;4966463;28;20247;-68
2023/07/31 00:17:31;;;;;;;34.97;7.88;;;;;;;;;;4966521;28;20224;-67
2023/07/31 00:19:57;;;;;;;27.33;7.60;;;;;;;;;;4968534;28;20946;-68
2023/07/31 00:22:22;;;;;;;29.10;7.88;;;;;;;;;;4967781;28;20215;-67
2023/07/31 00:24:47;;;;;;;21.77;7.47;;;;;;;;;;4965376;28;20305;-67
2023/07/31 00:27:12;;;;;;;28.38;7.20;;;;;;;;;;4968401;28;20198;-68
2023/07/31 00:29:38;;;;;;;30.77;7.85;;;;;;;;;;4966949;28;20357;-68
2023/07/31 00:32:03;;;;;;;22.65;7.35;;;;;;;;;;4963198;28;20220;-68
2023/07/31 00:34:28;;;;;;;22.58;5.53;;;;;;;;;;4966446;28;20215;-68
2023/07/31 00:36:53;;;;;;;17.73;7.32;;;;;;;;;;4969259;28;20736;-67
2023/07/31 00:39:19;;;;;;;23.38;6.90;;;;;;;;;;4967681;28;20658;-68
2023/07/31 00:41:44;;;;;;;27.40;7.38;;;;;;;;;;4967772;28;20191;-68
2023/07/31 00:44:09;;;;;;;15.88;6.28;;;;;;;;;;4966960;28;20345;-68
2023/07/31 00:46:34;;;;;;;19.85;5.55;;;;;;;;;;4967593;28;20242;-67
2023/07/31 00:49:00;;;;;;;22.02;5.70;;;;;;;;;;4964991;28;20575;-68
2023/07/31 00:51:25;;;;;;;20.85;6.57;;;;;;;;;;4967060;28;20192;-68
2023/07/31 00:53:51;;;;;;;19.00;5.78;;;;;;;;;;4966833;28;20266;-68
2023/07/31 00:56:16;;;;;;;17.30;6.50;;;;;;;;;;4969208;28;20198;-68
2023/07/31 00:58:41;;;;;;;27.33;6.95;;;;;;;;;;4967517;28;20203;-68
2023/07/31 01:01:06;;;;;;;19.60;6.55;;;;;;;;;;4967138;28;20184;-68
2023/07/31 01:03:32;;;;;;;24.80;6.30;;;;;;;;;;4962569;28;20265;-67
2023/07/31 01:05:57;;;;;;;20.02;6.20;;;;;;;;;;4967265;28;20600;-67
2023/07/31 01:08:41;;;;;;;25.70;8.13;;;;;;;;;;4962157;28;20234;-68
2023/07/31 01:11:16;;;;;;;23.23;5.88;;;;;;;;;;4967638;28;20681;-68
2023/07/31 01:13:42;;;;;;;22.45;6.00;;;;;;;;;;4966646;28;20274;-68
2023/07/31 01:16:07;;;;;;;19.25;6.93;;;;;;;;;;4968033;28;20191;-68
2023/07/31 01:18:33;;;;;;;20.00;7.25;;;;;;;;;;4966074;28;20246;-67
2023/07/31 01:21:04;;;;;;;27.05;7.35;;;;;;;;;;4968291;28;20303;-67
2023/07/31 01:23:46;;;;;;;26.75;6.47;;;;;;;;;;4967815;28;20671;-68
2023/07/31 01:26:15;;;;;;;35.90;8.02;;;;;;;;;;4966376;28;20180;-68
2023/07/31 01:28:47;;;;;;;21.92;7.20;;;;;;;;;;4967767;28;20188;-68
2023/07/31 01:31:14;;;;;;;37.55;8.23;;;;;;;;;;4966740;28;20643;-68
2023/07/31 01:33:40;;;;;;;15.85;5.93;;;;;;;;;;4967053;28;20211;-67
2023/07/31 01:36:05;;;;;;;14.70;4.53;;;;;;;;;;4967035;28;20197;-68
2023/07/31 01:38:30;;;;;;;13.85;5.72;;;;;;;;;;4964348;28;20211;-68
2023/07/31 01:40:56;;;;;;;10.80;3.50;;;;;;;;;;4967447;28;20220;-66
2023/07/31 01:43:21;;;;;;;12.63;4.22;;;;;;;;;;4967715;28;20241;-66
2023/07/31 01:45:46;;;;;;;13.15;4.00;;;;;;;;;;4965354;28;20184;-66
2023/07/31 01:48:11;;;;;;;11.48;3.25;;;;;;;;;;4968012;28;20190;-67
2023/07/31 01:50:37;;;;;;;14.82;4.13;;;;;;;;;;4963185;28;20742;-67
2023/07/31 01:53:02;;;;;;;9.07;3.67;;;;;;;;;;4967403;28;20234;-67
2023/07/31 01:55:27;;;;;;;10.52;3.70;;;;;;;;;;4964883;28;20844;-68
2023/07/31 01:57:53;;;;;;;7.13;3.80;;;;;;;;;;4967401;28;20579;-67
2023/07/31 02:00:18;;;;;;;12.23;4.03;;;;;;;;;;4964162;28;20313;-67
2023/07/31 02:02:43;;;;;;;10.80;4.55;;;;;;;;;;4967700;28;21007;-67
2023/07/31 02:05:08;;;;;;;13.35;5.25;;;;;;;;;;4966901;28;20270;-67
2023/07/31 02:07:34;;;;;;;12.75;4.93;;;;;;;;;;4966221;28;20210;-67
2023/07/31 02:09:59;;;;;;;9.43;4.32;;;;;;;;;;4967810;28;20185;-67
2023/07/31 02:12:24;;;;;;;19.55;6.43;;;;;;;;;;4967167;28;20192;-68
2023/07/31 02:14:49;;;;;;;17.33;5.45;;;;;;;;;;4964805;28;20230;-68
2023/07/31 02:17:14;;;;;;;23.90;6.05;;;;;;;;;;4967274;28;20293;-68
2023/07/31 02:19:40;;;;;;;20.85;6.00;;;;;;;;;;4966180;28;20847;-67
2023/07/31 02:22:05;;;;;;;19.95;6.18;;;;;;;;;;4970254;28;20222;-67
2023/07/31 02:24:31;;;;;;;19.85;5.35;;;;;;;;;;4970489;28;20216;-67
2023/07/31 02:26:57;;;;;;;18.55;5.18;;;;;;;;;;4970977;28;20184;-68
2023/07/31 02:29:22;;;;;;;23.67;6.70;;;;;;;;;;4971613;28;20192;-67
2023/07/31 02:31:47;;;;;;;19.42;5.65;;;;;;;;;;4971166;28;20192;-68
2023/07/31 02:34:12;;;;;;;18.60;6.30;;;;;;;;;;4967460;28;20223;-68
2023/07/31 02:36:37;;;;;;;22.38;6.28;;;;;;;;;;4968933;28;20680;-68
2023/07/31 02:39:03;;;;;;;15.20;6.40;;;;;;;;;;4965571;28;20553;-69
2023/07/31 02:41:28;;;;;;;19.23;6.45;;;;;;;;;;4968436;28;20187;-67
2023/07/31 02:43:53;;;;;;;17.85;6.82;;;;;;;;;;4967570;28;20220;-67
2023/07/31 02:46:19;;;;;;;23.38;6.50;;;;;;;;;;4969477;28;20199;-67
2023/07/31 02:48:44;;;;;;;27.23;6.85;;;;;;;;;;4969723;28;20731;-68
2023/07/31 02:51:09;;;;;;;17.77;7.05;;;;;;;;;;4966266;28;20189;-67
2023/07/31 02:53:34;;;;;;;28.27;7.47;;;;;;;;;;4970395;28;20772;-68
2023/07/31 02:56:00;;;;;;;15.30;6.43;;;;;;;;;;4969647;28;20302;-69
2023/07/31 02:58:25;;;;;;;20.13;6.70;;;;;;;;;;4970036;28;20235;-68
2023/07/31 03:00:50;;;;;;;23.52;6.45;;;;;;;;;;4962574;28;20188;-67
2023/07/31 03:03:15;;;;;;;29.00;7.32;;;;;;;;;;4967354;28;20231;-68
2023/07/31 03:05:40;;;;;;;16.25;7.68;;;;;;;;;;4968959;28;20246;-68
2023/07/31 03:08:06;;;;;;;24.58;8.05;;;;;;;;;;4970458;28;20847;-68
2023/07/31 03:10:31;;;;;;;15.13;7.25;;;;;;;;;;4969036;28;20215;-69
2023/07/31 03:12:56;;;;;;;22.90;6.22;;;;;;;;;;4969101;28;20357;-68
2023/07/31 03:15:21;;;;;;;25.08;7.22;;;;;;;;;;4969213;28;20191;-69
2023/07/31 03:17:46;;;;;;;25.20;7.72;;;;;;;;;;4968934;28;20220;-68
2023/07/31 03:20:12;;;;;;;21.45;7.22;;;;;;;;;;4969646;28;20202;-68
2023/07/31 03:22:37;;;;;;;18.52;6.18;;;;;;;;;;4969573;28;20188;-69
2023/07/31 03:25:03;;;;;;;22.05;7.03;;;;;;;;;;4968104;28;20761;-68
2023/07/31 03:27:28;;;;;;;16.00;6.32;;;;;;;;;;4967644;28;20192;-69
2023/07/31 03:29:53;;;;;;;21.80;6.85;;;;;;;;;;4967074;28;20278;-69
2023/07/31 03:32:19;;;;;;;16.38;6.03;;;;;;;;;;4967805;28;20604;-69
2023/07/31 03:34:44;;;;;;;18.77;6.78;;;;;;;;;;4968012;28;20211;-68
2023/07/31 03:37:09;;;;;;;19.08;6.47;;;;;;;;;;4970519;28;20682;-68
2023/07/31 03:39:35;;;;;;;13.00;5.80;;;;;;;;;;4967920;28;20297;-68
2023/07/31 03:42:00;;;;;;;19.60;6.15;;;;;;;;;;4966121;28;20223;-68
2023/07/31 03:44:25;;;;;;;17.50;6.53;;;;;;;;;;4967843;28;20208;-69
2023/07/31 03:46:50;;;;;;;26.27;6.78;;;;;;;;;;4968124;28;20196;-67
2023/07/31 03:49:16;;;;;;;21.25;6.25;;;;;;;;;;4969711;28;20188;-68
2023/07/31 03:51:41;;;;;;;18.25;5.28;;;;;;;;;;4967757;28;20187;-67
2023/07/31 03:54:07;;;;;;;16.90;5.78;;;;;;;;;;4969162;28;20652;-68
2023/07/31 03:56:33;;;;;;;16.90;5.53;;;;;;;;;;4966640;28;20574;-68
2023/07/31 03:58:58;;;;;;;16.25;6.00;;;;;;;;;;4969463;28;20221;-68
2023/07/31 04:01:23;;;;;;;13.82;6.15;;;;;;;;;;4964485;28;20188;-68
2023/07/31 04:03:48;;;;;;;15.43;5.15;;;;;;;;;;4966856;28;20328;-68
2023/07/31 04:06:17;;;;;;;18.05;6.30;;;;;;;;;;4967993;28;20207;-67
2023/07/31 04:08:43;;;;;;;16.95;6.40;;;;;;;;;;4967615;28;20206;-68
2023/07/31 04:11:08;;;;;;;14.98;5.38;;;;;;;;;;4967825;28;20188;-68
2023/07/31 04:13:33;;;;;;;16.42;5.75;;;;;;;;;;4967656;28;20465;-68
2023/07/31 04:15:58;;;;;;;14.30;6.03;;;;;;;;;;4969566;28;20193;-67
2023/07/31 04:18:24;;;;;;;16.00;5.80;;;;;;;;;;4968537;28;20204;-69
2023/07/31 04:20:49;;;;;;;17.10;6.65;;;;;;;;;;4981853;28;20180;-68
2023/07/31 04:23:15;;;;;;;19.83;6.00;;;;;;;;;;4966386;28;20593;-68
2023/07/31 04:25:40;;;;;;;19.05;5.97;;;;;;;;;;4967519;28;20195;-68
2023/07/31 04:28:05;;;;;;;19.88;6.05;;;;;;;;;;4968496;28;20862;-68
2023/07/31 04:30:30;;;;;;;19.88;8.20;;;;;;;;;;4969676;28;20632;-68
2023/07/31 04:32:56;;;;;;;16.20;6.22;;;;;;;;;;4968222;28;21096;-68
2023/07/31 04:35:21;;;;;;;18.33;5.20;;;;;;;;;;4969217;28;20205;-69
2023/07/31 04:37:48;;;;;;;18.55;6.05;;;;;;;;;;4968371;28;20214;-68
2023/07/31 04:40:13;;;;;;;16.38;6.03;;;;;;;;;;4970130;28;20314;-68
2023/07/31 04:42:39;;;;;;;10.35;5.35;;;;;;;;;;4967135;28;20202;-68
2023/07/31 04:45:04;;;;;;;14.55;5.57;;;;;;;;;;4966975;28;20554;-68
2023/07/31 04:47:30;;;;;;;16.00;6.15;;;;;;;;;;4965908;28;20191;-70
2023/07/31 04:49:55;;;;;;;9.30;4.90;;;;;;;;;;4967878;28;20184;-69
2023/07/31 04:52:20;;;;;;;14.48;5.30;;;;;;;;;;4967432;28;20198;-68
2023/07/31 04:54:45;;;;;;;14.20;4.78;;;;;;;;;;4967525;28;20222;-69
2023/07/31 04:57:11;;;;;;;12.73;4.78;;;;;;;;;;4966130;28;21033;-69
2023/07/31 04:59:36;;;;;;;13.65;5.80;;;;;;;;;;4968165;28;20212;-67
2023/07/31 05:02:02;;;;;;;10.55;4.00;;;;;;;;;;4965069;28;20189;-67
2023/07/31 05:04:27;;;;;;;8.93;3.88;;;;;;;;;;4966945;28;20215;-68
2023/07/31 05:06:52;;;;;;;8.02;3.83;;;;;;;;;;4967823;28;20208;-67
2023/07/31 05:09:18;;;;;;;12.45;5.47;;;;;;;;;;4966577;28;20202;-68
2023/07/31 05:11:43;;;;;;;15.85;4.10;;;;;;;;;;4967615;28;20191;-68
2023/07/31 05:14:08;;;;;;;15.75;4.47;;;;;;;;;;4965121;28;20257;-68
2023/07/31 05:16:34;;;;;;;7.93;3.63;;;;;;;;;;4965411;28;22331;-68
2023/07/31 05:18:59;;;;;;;9.52;4.40;;;;;;;;;;4966165;28;20224;-68
2023/07/31 05:21:24;;;;;;;21.25;7.05;;;;;;;;;;4966234;28;20196;-67
2023/07/31 05:23:49;;;;;;;15.75;5.57;;;;;;;;;;4964346;28;20235;-67
2023/07/31 05:26:15;;;;;;;18.00;5.97;;;;;;;;;;4962800;28;20180;-68
2023/07/31 05:28:40;;;;;;;11.63;5.50;;;;;;;;;;4966120;28;20207;-68
2023/07/31 05:31:06;;;;;;;14.48;5.95;;;;;;;;;;4966077;28;21120;-67
2023/07/31 05:33:31;;;;;;;11.27;4.63;;;;;;;;;;4967487;28;20222;-67
2023/07/31 05:35:56;;;;;;;14.27;6.28;;;;;;;;;;4965707;28;20188;-68
2023/07/31 05:38:22;;;;;;;13.85;5.15;;;;;;;;;;4962177;28;21015;-67
2023/07/31 05:40:47;;;;;;;45.35;12.63;;;;;;;;;;4964839;28;20212;-67
2023/07/31 05:43:13;;;;;;;14.88;5.45;;;;;;;;;;4967205;28;20203;-67
2023/07/31 05:45:38;;;;;;;10.80;4.75;;;;;;;;;;4963729;28;20188;-69
2023/07/31 05:48:03;;;;;;;13.77;5.28;;;;;;;;;;4965119;28;20743;-67
2023/07/31 05:50:29;;;;;;;14.32;4.97;;;;;;;;;;4965460;28;21050;-67
2023/07/31 05:52:54;;;;;;;9.07;4.93;;;;;;;;;;4965581;28;20207;-67
2023/07/31 05:55:20;;;;;;;10.20;4.47;;;;;;;;;;4966567;28;20207;-68
2023/07/31 05:57:46;;;;;;;11.85;4.97;;;;;;;;;;4970453;28;20211;-67
2023/07/31 06:00:11;;;;;;;11.10;3.70;;;;;;;;;;4966314;28;20180;-66
2023/07/31 06:02:37;;;;;;;9.38;4.13;;;;;;;;;;4969655;28;20987;-65
2023/07/31 06:05:03;;;;;;;7.63;3.55;;;;;;;;;;4971752;28;20623;-67
2023/07/31 06:07:29;;;;;;;9.57;4.47;;;;;;;;;;4968500;28;20194;-67
2023/07/31 06:09:55;;;;;;;8.23;3.90;;;;;;;;;;4969925;28;20571;-67
2023/07/31 06:12:20;;;;;;;12.30;4.05;;;;;;;;;;4964375;28;20479;-66
2023/07/31 06:14:45;;;;;;;9.30;4.18;;;;;;;;;;4995705;22;20453;-72
2023/07/31 06:17:10;;;;;;;9.25;4.00;;;;;;;;;;4990411;28;20215;-71
2023/07/31 06:19:36;;;;;;;9.52;4.20;;;;;;;;;;4988530;28;20753;-71
2023/07/31 06:22:01;;;;;;;6.28;3.50;;;;;;;;;;4989413;28;20229;-71
2023/07/31 06:24:26;;;;;;;6.30;3.60;;;;;;;;;;4990094;28;20207;-70
2023/07/31 06:26:51;;;;;;;7.10;3.72;;;;;;;;;;4989311;28;20193;-72
2023/07/31 06:29:17;;;;;;;13.77;3.90;;;;;;;;;;4990493;28;20226;-72
2023/07/31 06:31:42;;;;;;;6.82;3.35;;;;;;;;;;4988800;28;20271;-72
2023/07/31 06:34:07;;;;;;;5.78;3.13;;;;;;;;;;4990033;28;20358;-72
2023/07/31 06:36:32;;;;;;;6.65;3.70;;;;;;;;;;4990277;28;20217;-71
2023/07/31 06:38:57;;;;;;;7.78;3.00;;;;;;;;;;4985789;28;21308;-71
2023/07/31 06:41:23;;;;;;;9.23;4.35;;;;;;;;;;4985332;28;20195;-71
2023/07/31 06:43:48;;;;;;;7.85;3.20;;;;;;;;;;4982136;28;20226;-72
2023/07/31 06:46:13;;;;;;;9.73;3.72;;;;;;;;;;4989882;28;20188;-73
2023/07/31 06:48:39;;;;;;;9.00;4.15;;;;;;;;;;4988324;28;20257;-73
2023/07/31 06:51:04;;;;;;;7.32;3.65;;;;;;;;;;4987899;28;20194;-71
2023/07/31 06:53:29;;;;;;;5.50;3.30;;;;;;;;;;4990553;28;20218;-72
2023/07/31 06:55:55;;;;;;;7.78;3.17;;;;;;;;;;4989345;28;20870;-74
2023/07/31 06:58:20;;;;;;;10.40;3.60;;;;;;;;;;4989816;28;20304;-72
2023/07/31 07:00:45;;;;;;;9.02;3.60;;;;;;;;;;4985590;28;20233;-72
2023/07/31 07:03:10;;;;;;;11.70;3.42;;;;;;;;;;4984826;28;20218;-73
2023/07/31 07:05:36;;;;;;;7.38;2.83;;;;;;;;;;4982841;28;20925;-72
2023/07/31 07:08:01;;;;;;;5.05;2.85;;;;;;;;;;4985589;28;20216;-72
2023/07/31 07:10:26;;;;;;;6.72;3.47;;;;;;;;;;4989528;28;20198;-72
2023/07/31 07:12:52;;;;;;;5.90;3.00;;;;;;;;;;4988769;28;20197;-72
2023/07/31 07:15:17;;;;;;;6.65;3.72;;;;;;;;;;4990107;28;20234;-72
2023/07/31 07:17:43;;;;;;;7.35;3.33;;;;;;;;;;4989197;28;20329;-72
2023/07/31 07:20:08;;;;;;;6.93;3.40;;;;;;;;;;4990997;28;20194;-72
2023/07/31 07:22:33;;;;;;;5.03;3.40;;;;;;;;;;4989942;28;20969;-72
2023/07/31 07:24:58;;;;;;;6.60;2.80;;;;;;;;;;4987735;28;20199;-72
2023/07/31 07:27:24;;;;;;;5.35;3.33;;;;;;;;;;4987724;28;20194;-72
2023/07/31 07:29:52;;;;;;;5.78;2.50;;;;;;;;;;4985973;28;20283;-72
2023/07/31 07:32:18;;;;;;;2.65;2.40;;;;;;;;;;4988690;28;21669;-72
2023/07/31 07:34:43;;;;;;;4.70;2.75;;;;;;;;;;4987049;28;20234;-73
2023/07/31 07:37:08;;;;;;;4.60;2.40;;;;;;;;;;4989364;28;20212;-72
2023/07/31 07:39:34;;;;;;;4.03;2.20;;;;;;;;;;4987042;28;20241;-72
2023/07/31 07:41:59;;;;;;;3.80;1.85;;;;;;;;;;4988501;28;20192;-71
2023/07/31 07:44:24;;;;;;;2.40;1.65;;;;;;;;;;4982313;28;20869;-71
2023/07/31 07:46:49;;;;;;;3.25;1.77;;;;;;;;;;4984925;28;20183;-73
2023/07/31 07:49:15;;;;;;;4.30;1.63;;;;;;;;;;4986077;28;20278;-73
2023/07/31 07:51:40;;;;;;;4.25;2.40;;;;;;;;;;4988784;28;20202;-74
2023/07/31 07:54:05;;;;;;;2.45;1.80;;;;;;;;;;4984814;28;20712;-73
2023/07/31 07:56:31;;;;;;;3.13;1.52;;;;;;;;;;4985066;28;20887;-72
2023/07/31 07:58:56;;;;;;;1.92;1.40;;;;;;;;;;4983876;28;20218;-72
2023/07/31 08:01:21;;;;;;;4.47;2.03;;;;;;;;;;4987202;28;20869;-73
2023/07/31 08:03:47;;;;;;;3.00;1.80;;;;;;;;;;4983871;28;20206;-72
2023/07/31 08:06:12;;;;;;;3.33;1.63;;;;;;;;;;4984916;28;21056;-71
2023/07/31 08:08:38;;;;;;;6.57;2.22;;;;;;;;;;4985502;28;20191;-72
2023/07/31 08:11:03;;;;;;;1.80;1.45;;;;;;;;;;4986512;28;22298;-70
2023/07/31 08:13:28;;;;;;;1.75;1.33;;;;;;;;;;4988665;28;20214;-72
2023/07/31 08:15:54;;;;;;;4.88;2.22;;;;;;;;;;4988405;28;20973;-72
2023/07/31 08:18:19;;;;;;;5.13;1.98;;;;;;;;;;4985229;28;20296;-72
2023/07/31 08:20:45;;;;;;;3.90;1.83;;;;;;;;;;4987046;28;20183;-72
2023/07/31 08:23:10;;;;;;;4.53;1.70;;;;;;;;;;4986885;28;20183;-71
2023/07/31 08:25:36;;;;;;;3.15;1.60;;;;;;;;;;4985645;28;20187;-71
2023/07/31 08:28:01;;;;;;;1.45;1.20;;;;;;;;;;4987459;28;20191;-71
2023/07/31 08:30:26;;;;;;;1.75;1.48;;;;;;;;;;4987162;28;20190;-72
2023/07/31 08:32:52;;;;;;;1.70;1.60;;;;;;;;;;4988539;28;20194;-71
2023/07/31 08:35:17;;;;;;;4.30;1.55;;;;;;;;;;4985035;28;20211;-73
2023/07/31 08:37:42;;;;;;;7.40;1.88;;;;;;;;;;4978321;28;20212;-72
2023/07/31 08:40:08;;;;;;;4.93;1.70;;;;;;;;;;4988152;28;20237;-71
2023/07/31 08:42:33;;;;;;;1.90;1.25;;;;;;;;;;4987005;28;20180;-74
2023/07/31 08:44:59;;;;;;;1.90;1.48;;;;;;;;;;4981462;28;20207;-74
2023/07/31 08:47:25;;;;;;;2.78;1.50;;;;;;;;;;4988647;28;20245;-71
2023/07/31 08:49:52;;;;;;;5.95;2.83;;;;;;;;;;4987873;28;20207;-72
2023/07/31 08:52:17;;;;;;;4.13;2.45;;;;;;;;;;4988207;28;20646;-72
2023/07/31 08:54:42;;;;;;;9.10;2.55;;;;;;;;;;4986801;28;20218;-72
2023/07/31 08:57:08;;;;;;;3.65;1.63;;;;;;;;;;4988998;28;20206;-72
2023/07/31 08:59:34;;;;;;;4.13;2.58;;;;;;;;;;4986952;28;20727;-72
2023/07/31 09:02:07;;;;;;;2.53;1.50;;;;;;;;;;4987908;28;20245;-71
2023/07/31 09:04:32;;;;;;;2.30;1.52;;;;;;;;;;4986981;28;20655;-72
2023/07/31 09:06:59;;;;;;;5.78;2.90;;;;;;;;;;4987646;28;20178;-72
2023/07/31 09:09:25;;;;;;;4.35;2.38;;;;;;;;;;4988106;28;20195;-72
2023/07/31 09:11:50;;;;;;;4.00;2.30;;;;;;;;;;4987969;28;20681;-71
2023/07/31 09:14:16;;;;;;;5.40;2.50;;;;;;;;;;4987614;28;20239;-72
2023/07/31 09:16:52;;;;;;;5.28;2.22;;;;;;;;;;4987317;28;20187;-72
2023/07/31 09:19:24;;;;;;;2.50;2.30;;;;;;;;;;4981442;28;20186;-72
2023/07/31 09:21:49;;;;;;;4.55;2.50;;;;;;;;;;4987389;28;20220;-73
2023/07/31 09:24:24;;;;;;;3.05;2.65;;;;;;;;;;4984981;28;20329;-72
2023/07/31 09:26:53;;;;;;;4.03;2.03;;;;;;;;;;4986989;28;20241;-73
2023/07/31 09:29:19;;;;;;;2.47;2.08;;;;;;;;;;4987788;28;20175;-72
2023/07/31 09:31:45;;;;;;;5.53;1.98;;;;;;;;;;4991326;28;20184;-73
2023/07/31 09:34:13;;;;;;;3.72;1.77;;;;;;;;;;4991130;28;20240;-73
2023/07/31 09:36:45;;;;;;;3.42;1.67;;;;;;;;;;4992716;28;20183;-72
2023/07/31 09:39:11;;;;;;;2.55;1.60;;;;;;;;;;4990239;28;20202;-71
2023/07/31 09:41:40;;;;;;;3.05;2.35;;;;;;;;;;4991824;28;20171;-71
2023/07/31 09:44:05;;;;;;;3.17;2.22;;;;;;;;;;4990845;28;20211;-71
2023/07/31 09:46:31;;;;;;;2.20;1.92;;;;;;;;;;4991019;28;20187;-71
2023/07/31 09:49:12;;;;;;;3.00;2.30;;;;;;;;;;4992133;28;20179;-72
2023/07/31 09:51:38;;;;;;;5.18;3.00;;;;;;;;;;4992359;28;20201;-73
2023/07/31 09:54:16;;;;;;;4.75;2.83;;;;;;;;;;4990807;28;20227;-73
2023/07/31 09:56:45;;;;;;;3.80;2.75;;;;;;;;;;4991170;28;20269;-73
2023/07/31 09:59:12;;;;;;;4.95;3.63;;;;;;;;;;4989551;28;20246;-73
2023/07/31 10:01:37;;;;;;;5.60;3.08;;;;;;;;;;4991219;28;20330;-74
2023/07/31 10:04:04;;;;;;;4.10;3.00;;;;;;;;;;4991410;28;20207;-74
2023/07/31 10:06:29;;;;;;;5.10;3.60;;;;;;;;;;4990304;28;20266;-73
2023/07/31 10:08:54;;;;;;;6.68;3.63;;;;;;;;;;4991297;28;20570;-73
2023/07/31 10:11:20;;;;;;;4.75;3.30;;;;;;;;;;4991494;28;20625;-72
2023/07/31 10:13:46;;;;;;;8.20;3.60;;;;;;;;;;4990197;28;20269;-75
2023/07/31 10:16:12;;;;;;;6.15;3.30;;;;;;;;;;4991000;28;20184;-74
2023/07/31 10:18:38;;;;;;;4.50;3.83;;;;;;;;;;4989549;28;20842;-73
2023/07/31 10:21:03;;;;;;;4.40;3.38;;;;;;;;;;4991153;28;20681;-73
2023/07/31 10:23:29;;;;;;;4.35;3.40;;;;;;;;;;4991152;28;20294;-73
2023/07/31 10:25:55;;;;;;;5.80;3.58;;;;;;;;;;4991509;28;20179;-74
2023/07/31 10:28:20;;;;;;;4.00;3.00;;;;;;;;;;4991389;28;20188;-72
2023/07/31 10:30:46;;;;;;;6.22;2.72;;;;;;;;;;4989640;28;20553;-73
2023/07/31 10:33:11;;;;;;;4.22;3.30;;;;;;;;;;4986524;28;20199;-74
2023/07/31 10:35:36;;;;;;;3.65;2.83;;;;;;;;;;4989458;28;20179;-73
2023/07/31 10:38:11;;;;;;;3.38;2.70;;;;;;;;;;4990407;28;20264;-72
2023/07/31 10:40:37;;;;;;;6.10;2.90;;;;;;;;;;4989538;28;20207;-74
2023/07/31 10:43:02;;;;;;;5.50;2.72;;;;;;;;;;4988969;28;20274;-73
2023/07/31 10:45:30;;;;;;;3.35;2.78;;;;;;;;;;4990365;28;20262;-72
2023/07/31 10:47:59;;;;;;;4.03;2.40;;;;;;;;;;4990407;28;20194;-72
2023/07/31 10:50:24;;;;;;;3.70;2.20;;;;;;;;;;4989276;28;20183;-72
2023/07/31 10:52:57;;;;;;;5.43;3.17;;;;;;;;;;4990594;28;20325;-72
2023/07/31 10:55:27;;;;;;;2.65;2.30;;;;;;;;;;4989833;28;20218;-72
2023/07/31 10:57:53;;;;;;;4.18;2.58;;;;;;;;;;4989841;28;20572;-73
2023/07/31 11:00:20;;;;;;;3.33;3.03;;;;;;;;;;4989021;28;20194;-71
2023/07/31 11:03:06;;;;;;;3.65;2.80;;;;;;;;;;4989680;28;20178;-72
2023/07/31 11:05:40;;;;;;;6.55;3.97;;;;;;;;;;4988925;28;20187;-72
2023/07/31 11:08:19;;;;;;;6.30;3.78;;;;;;;;;;4990349;28;20561;-73
2023/07/31 11:10:45;;;;;;;3.67;3.08;;;;;;;;;;4988494;28;20197;-73
2023/07/31 11:13:10;;;;;;;6.68;3.85;;;;;;;;;;4990233;28;20187;-73
2023/07/31 11:15:35;;;;;;;4.65;3.40;;;;;;;;;;4985185;28;20194;-73
2023/07/31 11:18:05;;;;;;;3.67;3.17;;;;;;;;;;4988895;28;20217;-73
2023/07/31 11:20:31;;;;;;;4.07;3.50;;;;;;;;;;4989100;28;20267;-73
2023/07/31 11:22:58;;;;;;;4.88;3.30;;;;;;;;;;4988550;28;20678;-73
2023/07/31 11:25:23;;;;;;;7.97;3.40;;;;;;;;;;4987651;28;20190;-72
2023/07/31 11:27:53;;;;;;;5.70;3.28;;;;;;;;;;4990883;28;20459;-73
2023/07/31 11:30:18;;;;;;;4.10;3.38;;;;;;;;;;4989329;28;20198;-73
2023/07/31 11:32:44;;;;;;;4.55;3.45;;;;;;;;;;4988718;28;20274;-73
2023/07/31 11:35:12;;;;;;;11.52;4.63;;;;;;;;;;4989035;28;20294;-73
2023/07/31 11:37:41;;;;;;;4.22;3.53;;;;;;;;;;4988883;28;20218;-72
2023/07/31 11:40:06;;;;;;;4.28;3.15;;;;;;;;;;4987565;28;20265;-73
2023/07/31 11:42:32;;;;;;;4.45;3.20;;;;;;;;;;4988171;28;20275;-72
2023/07/31 11:44:57;;;;;;;4.72;3.35;;;;;;;;;;4989393;28;20231;-72
2023/07/31 11:47:22;;;;;;;2.90;2.60;;;;;;;;;;4989085;28;20447;-73
2023/07/31 11:49:48;;;;;;;4.50;2.40;;;;;;;;;;4989585;28;20444;-73
2023/07/31 11:52:14;;;;;;;3.58;2.70;;;;;;;;;;4989574;28;20619;-72
2023/07/31 11:54:40;;;;;;;5.05;2.53;;;;;;;;;;4988985;28;20215;-72
2023/07/31 11:57:07;;;;;;;2.83;2.30;;;;;;;;;;4988761;28;20293;-73
2023/07/31 11:59:32;;;;;;;3.33;2.75;;;;;;;;;;4988696;28;20270;-72
2023/07/31 12:01:58;;;;;;;3.72;2.17;;;;;;;;;;4988135;28;20498;-72
2023/07/31 12:04:23;;;;;;;2.60;2.10;;;;;;;;;;4988475;28;20227;-73
2023/07/31 12:06:50;;;;;;;2.47;2.25;;;;;;;;;;4989090;28;20579;-72
2023/07/31 12:09:15;;;;;;;2.60;2.25;;;;;;;;;;4988735;28;20613;-72
2023/07/31 12:11:44;;;;;;;2.40;2.08;;;;;;;;;;4989108;28;20190;-72
2023/07/31 12:14:19;;;;;;;2.75;2.03;;;;;;;;;;5001779;23;20680;-66
2023/07/31 12:16:44;;;;;;;3.83;2.17;;;;;;;;;;5009340;28;20194;-67
2023/07/31 12:19:09;;;;;;;3.97;2.50;;;;;;;;;;5007971;28;20850;-67
2023/07/31 12:21:34;;;;;;;2.25;2.05;;;;;;;;;;4990656;28;20183;-67
2023/07/31 12:24:00;;;;;;;5.80;2.70;;;;;;;;;;4987208;28;20669;-67
2023/07/31 12:26:33;;;;;;;2.47;2.10;;;;;;;;;;4988807;28;20210;-67
2023/07/31 12:28:58;;;;;;;3.28;2.78;;;;;;;;;;4989765;28;20206;-67
2023/07/31 12:31:27;;;;;;;5.03;2.92;;;;;;;;;;4988482;28;20669;-68
2023/07/31 12:33:52;;;;;;;5.03;3.20;;;;;;;;;;4987878;28;20289;-68
2023/07/31 12:36:22;;;;;;;5.05;2.75;;;;;;;;;;4970395;28;20674;-67
2023/07/31 12:38:47;;;;;;;2.92;2.55;;;;;;;;;;4988137;28;20203;-68
2023/07/31 12:41:13;;;;;;;2.55;2.35;;;;;;;;;;4977052;28;20187;-69
2023/07/31 12:43:39;;;;;;;4.00;2.92;;;;;;;;;;4986504;28;20763;-67
2023/07/31 12:46:05;;;;;;;3.25;2.60;;;;;;;;;;4988388;28;20179;-68
2023/07/31 12:48:31;;;;;;;2.85;2.42;;;;;;;;;;4989649;28;20179;-67
2023/07/31 12:50:56;;;;;;;3.50;2.60;;;;;;;;;;4988270;28;20194;-68
2023/07/31 12:53:21;;;;;;;3.15;2.50;;;;;;;;;;4988353;28;20538;-68
2023/07/31 12:55:46;;;;;;;4.13;2.38;;;;;;;;;;4970463;28;20199;-68
2023/07/31 12:58:12;;;;;;;3.60;2.30;;;;;;;;;;4987483;28;20917;-68
2023/07/31 13:00:37;;;;;;;4.95;2.60;;;;;;;;;;4983959;28;20198;-68
2023/07/31 13:03:03;;;;;;;4.28;2.25;;;;;;;;;;4987626;28;20183;-68
2023/07/31 13:05:28;;;;;;;2.63;2.10;;;;;;;;;;4988234;28;20215;-68
2023/07/31 13:07:53;;;;;;;1.83;1.42;;;;;;;;;;4988009;28;20901;-68
2023/07/31 13:10:19;;;;;;;4.47;2.40;;;;;;;;;;4988134;28;20249;-68
2023/07/31 13:12:44;;;;;;;1.95;1.20;;;;;;;;;;4988480;28;20183;-68
2023/07/31 13:15:10;;;;;;;2.72;1.80;;;;;;;;;;4987232;28;20880;-66
2023/07/31 13:17:35;;;;;;;3.50;2.10;;;;;;;;;;4983309;28;20222;-67
2023/07/31 13:20:00;;;;;;;1.85;1.65;;;;;;;;;;4987587;28;21068;-67
2023/07/31 13:22:26;;;;;;;2.08;1.80;;;;;;;;;;4988334;28;20273;-67
2023/07/31 13:24:51;;;;;;;1.70;1.50;;;;;;;;;;4987657;28;20626;-68
2023/07/31 13:27:21;;;;;;;2.65;1.58;;;;;;;;;;4987827;28;20183;-68
2023/07/31 13:29:46;;;;;;;2.10;1.67;;;;;;;;;;4969796;28;20198;-68
2023/07/31 13:32:12;;;;;;;1.92;1.73;;;;;;;;;;4987713;28;20282;-68
2023/07/31 13:34:37;;;;;;;2.22;1.50;;;;;;;;;;4984238;28;20312;-68
2023/07/31 13:37:03;;;;;;;3.00;1.30;;;;;;;;;;4987999;28;20195;-67
2023/07/31 13:39:28;;;;;;;1.92;1.58;;;;;;;;;;4987505;28;20194;-69
2023/07/31 13:41:53;;;;;;;1.73;1.45;;;;;;;;;;4988444;28;20208;-68
2023/07/31 13:44:18;;;;;;;2.35;1.85;;;;;;;;;;4988115;28;20210;-68
2023/07/31 13:46:44;;;;;;;3.10;2.08;;;;;;;;;;4986025;28;20648;-68
2023/07/31 13:49:09;;;;;;;2.45;1.98;;;;;;;;;;4988443;28;20691;-68
2023/07/31 13:51:34;;;;;;;3.00;1.80;;;;;;;;;;4970047;28;21042;-68
2023/07/31 13:53:59;;;;;;;3.20;2.30;;;;;;;;;;4978576;28;20249;-67
2023/07/31 13:56:24;;;;;;;4.25;2.67;;;;;;;;;;4969886;28;20192;-66
2023/07/31 13:58:50;;;;;;;3.38;2.42;;;;;;;;;;4987083;28;20672;-66
2023/07/31 14:01:15;;;;;;;2.50;1.88;;;;;;;;;;4968942;28;20649;-67
2023/07/31 14:03:40;;;;;;;3.08;2.08;;;;;;;;;;4987705;28;20606;-67
2023/07/31 14:06:05;;;;;;;3.13;2.08;;;;;;;;;;4970429;28;20234;-67
2023/07/31 14:08:31;;;;;;;4.88;4.05;;;;;;;;;;4966777;28;20186;-67
2023/07/31 14:10:56;;;;;;;6.68;5.03;;;;;;;;;;4970122;28;20413;-68
2023/07/31 14:13:21;;;;;;;6.90;5.05;;;;;;;;;;4969919;28;20186;-66
2023/07/31 14:15:46;;;;;;;6.10;5.10;;;;;;;;;;4987433;28;20218;-68
2023/07/31 14:18:12;;;;;;;5.28;4.05;;;;;;;;;;4990782;28;20452;-68
2023/07/31 14:20:37;;;;;;;5.47;3.80;;;;;;;;;;4973299;28;20574;-67
2023/07/31 14:23:03;;;;;;;5.60;4.53;;;;;;;;;;4971618;28;20220;-68
2023/07/31 14:25:28;;;;;;;4.85;4.10;;;;;;;;;;4990777;28;20238;-68
2023/07/31 14:27:53;;;;;;;3.97;3.22;;;;;;;;;;4988839;28;20190;-68
2023/07/31 14:30:18;;;;;;;4.88;4.38;;;;;;;;;;4990015;28;20504;-68
2023/07/31 14:32:44;;;;;;;5.53;4.10;;;;;;;;;;4990573;28;20191;-67